createdAt,value
2019-02-20T00:00:40.817Z,4.30
2019-02-20T00:01:45.062Z,4.20
2019-02-20T00:02:49.415Z,4.10
2019-02-20T00:03:53.751Z,4.10
2019-02-20T00:04:57.930Z,4.00
2019-02-20T00:06:02.528Z,4.00
2019-02-20T00:07:06.826Z,4.10
2019-02-20T00:08:11.078Z,4.00
2019-02-20T00:09:15.714Z,3.90
2019-02-20T00:10:19.879Z,4.00
2019-02-20T00:11:24.123Z,4.00
2019-02-20T00:12:28.282Z,4.00
2019-02-20T00:13:32.475Z,4.00
2019-02-20T00:14:36.673Z,4.00
2019-02-20T00:15:40.864Z,3.90
2019-02-20T00:16:45.032Z,4.00
2019-02-20T00:17:49.213Z,4.00
2019-02-20T00:18:53.979Z,3.90
2019-02-20T00:19:58.176Z,3.90
2019-02-20T00:21:02.445Z,3.80
2019-02-20T00:22:06.629Z,3.90
2019-02-20T00:23:10.757Z,3.90
2019-02-20T00:24:14.974Z,3.90
2019-02-20T00:25:19.258Z,3.80
2019-02-20T00:26:23.530Z,3.80
2019-02-20T00:27:27.707Z,3.90
2019-02-20T00:28:32.054Z,3.90
2019-02-20T00:29:36.211Z,3.90
2019-02-20T00:30:41.170Z,3.90
2019-02-20T00:31:45.387Z,3.90
2019-02-20T00:32:49.681Z,3.90
2019-02-20T00:33:53.992Z,3.90
2019-02-20T00:34:58.179Z,3.90
2019-02-20T00:36:02.443Z,3.90
2019-02-20T00:37:07.039Z,3.90
2019-02-20T00:38:11.645Z,4.00
2019-02-20T00:39:15.937Z,4.00
2019-02-20T00:40:20.243Z,4.00
2019-02-20T00:41:24.583Z,4.00
2019-02-20T00:42:28.893Z,4.00
2019-02-20T00:43:33.561Z,4.10
2019-02-20T00:44:56.711Z,4.10
2019-02-20T00:46:25.606Z,4.10
2019-02-20T00:47:54.649Z,4.00
2019-02-20T00:49:20.905Z,4.00
2019-02-20T00:50:26.456Z,3.90
2019-02-20T00:51:37.625Z,3.90
2019-02-20T00:52:50.316Z,3.90
2019-02-20T00:53:58.102Z,3.90
2019-02-20T00:55:02.372Z,3.90
2019-02-20T00:56:06.601Z,3.80
2019-02-20T00:57:10.790Z,3.80
2019-02-20T00:58:15.058Z,3.90
2019-02-20T00:59:19.597Z,3.70
2019-02-20T01:00:23.903Z,3.70
2019-02-20T01:01:28.217Z,3.80
2019-02-20T01:02:32.378Z,3.80
2019-02-20T01:03:36.571Z,3.80
2019-02-20T01:04:40.809Z,3.80
2019-02-20T01:05:45.005Z,3.80
2019-02-20T01:06:49.211Z,3.80
2019-02-20T01:07:53.467Z,3.80
2019-02-20T01:08:57.922Z,3.90
2019-02-20T01:10:02.119Z,4.00
2019-02-20T01:11:06.641Z,4.10
2019-02-20T01:12:11.235Z,4.20
2019-02-20T01:13:15.527Z,4.10
2019-02-20T01:14:19.773Z,4.10
2019-02-20T01:15:23.986Z,4.10
2019-02-20T01:16:28.162Z,4.00
2019-02-20T01:17:32.327Z,4.00
2019-02-20T01:18:36.856Z,4.10
2019-02-20T01:19:41.007Z,4.10
2019-02-20T01:20:45.298Z,4.10
2019-02-20T01:21:49.579Z,4.00
2019-02-20T01:22:59.636Z,4.00
2019-02-20T01:23:59.683Z,4.00
2019-02-20T01:25:04.061Z,4.00
2019-02-20T01:26:08.254Z,4.00
2019-02-20T01:27:12.570Z,4.00
2019-02-20T01:28:16.824Z,4.00
2019-02-20T01:29:20.993Z,4.00
2019-02-20T01:30:25.320Z,3.90
2019-02-20T01:31:29.476Z,3.80
2019-02-20T01:32:33.634Z,3.80
2019-02-20T01:33:37.865Z,3.70
2019-02-20T01:34:42.164Z,3.70
2019-02-20T01:35:46.438Z,3.70
2019-02-20T01:36:50.610Z,3.70
2019-02-20T01:37:54.892Z,3.70
2019-02-20T01:38:59.089Z,3.80
2019-02-20T01:40:03.367Z,3.70
2019-02-20T01:41:07.633Z,3.70
2019-02-20T01:42:11.938Z,3.60
2019-02-20T01:43:16.165Z,3.60
2019-02-20T01:44:22.178Z,3.60
2019-02-20T01:45:26.403Z,3.60
2019-02-20T01:46:30.692Z,3.60
2019-02-20T01:47:34.892Z,3.70
2019-02-20T01:48:39.099Z,3.70
2019-02-20T01:49:43.253Z,3.70
2019-02-20T01:50:47.780Z,3.60
2019-02-20T01:51:52.049Z,3.60
2019-02-20T01:52:56.299Z,3.60
2019-02-20T01:54:00.482Z,3.50
2019-02-20T01:55:05.130Z,3.50
2019-02-20T01:56:09.348Z,3.50
2019-02-20T01:57:13.607Z,3.50
2019-02-20T01:58:17.809Z,3.60
2019-02-20T01:59:22.017Z,3.70
2019-02-20T02:00:26.152Z,3.60
2019-02-20T02:01:30.429Z,3.60
2019-02-20T02:02:34.600Z,3.60
2019-02-20T02:03:39.230Z,3.70
2019-02-20T02:04:43.521Z,3.60
2019-02-20T02:05:47.706Z,3.60
2019-02-20T02:06:52.219Z,3.70
2019-02-20T02:07:56.531Z,3.70
2019-02-20T02:09:00.848Z,3.60
2019-02-20T02:10:05.639Z,3.60
2019-02-20T02:11:09.917Z,3.60
2019-02-20T02:12:14.248Z,3.60
2019-02-20T02:13:18.381Z,3.60
2019-02-20T02:14:22.645Z,3.50
2019-02-20T02:15:26.900Z,3.60
2019-02-20T02:16:31.155Z,3.60
2019-02-20T02:17:35.489Z,3.60
2019-02-20T02:18:39.654Z,3.60
2019-02-20T02:19:43.905Z,3.60
2019-02-20T02:20:48.123Z,3.50
2019-02-20T02:21:52.373Z,3.60
2019-02-20T02:22:56.539Z,3.60
2019-02-20T02:24:00.671Z,3.60
2019-02-20T02:25:05.349Z,3.50
2019-02-20T02:26:11.074Z,3.50
2019-02-20T02:27:15.518Z,3.50
2019-02-20T02:28:19.724Z,3.50
2019-02-20T02:29:24.145Z,3.60
2019-02-20T02:30:28.382Z,3.50
2019-02-20T02:31:32.730Z,3.50
2019-02-20T02:32:36.996Z,3.60
2019-02-20T02:33:41.237Z,3.70
2019-02-20T02:34:45.418Z,3.70
2019-02-20T02:35:49.704Z,3.70
2019-02-20T02:36:54.120Z,3.70
2019-02-20T02:38:01.703Z,3.70
2019-02-20T02:39:06.629Z,3.70
2019-02-20T02:40:10.950Z,3.70
2019-02-20T02:41:15.197Z,3.70
2019-02-20T02:42:19.473Z,3.70
2019-02-20T02:43:23.637Z,3.60
2019-02-20T02:44:27.833Z,3.60
2019-02-20T02:45:32.083Z,3.60
2019-02-20T02:46:36.270Z,3.60
2019-02-20T02:47:40.532Z,3.50
2019-02-20T02:48:44.836Z,3.40
2019-02-20T02:49:49.068Z,3.40
2019-02-20T02:50:53.326Z,3.40
2019-02-20T02:51:57.631Z,3.40
2019-02-20T02:53:01.886Z,3.50
2019-02-20T02:54:06.363Z,3.70
2019-02-20T02:55:10.557Z,3.70
2019-02-20T02:56:14.886Z,3.80
2019-02-20T02:57:19.182Z,3.80
2019-02-20T02:58:23.393Z,3.80
2019-02-20T02:59:27.587Z,3.80
2019-02-20T03:00:31.850Z,3.80
2019-02-20T03:01:36.161Z,3.80
2019-02-20T03:02:40.386Z,3.90
2019-02-20T03:03:44.623Z,3.90
2019-02-20T03:04:48.947Z,3.90
2019-02-20T03:05:53.127Z,3.80
2019-02-20T03:06:57.446Z,3.70
2019-02-20T03:08:01.759Z,3.70
2019-02-20T03:09:06.567Z,3.70
2019-02-20T03:10:10.741Z,3.80
2019-02-20T03:11:14.923Z,3.90
2019-02-20T03:12:19.181Z,3.80
2019-02-20T03:13:23.491Z,3.70
2019-02-20T03:14:27.709Z,3.60
2019-02-20T03:15:31.967Z,3.60
2019-02-20T03:16:36.113Z,3.50
2019-02-20T03:17:40.435Z,3.50
2019-02-20T03:18:44.724Z,3.50
2019-02-20T03:19:48.912Z,3.40
2019-02-20T03:20:53.215Z,3.40
2019-02-20T03:21:57.541Z,3.50
2019-02-20T03:23:01.840Z,3.50
2019-02-20T03:24:06.118Z,3.50
2019-02-20T03:25:10.395Z,3.50
2019-02-20T03:26:14.727Z,3.50
2019-02-20T03:27:18.981Z,3.50
2019-02-20T03:28:23.437Z,3.60
2019-02-20T03:29:27.633Z,3.70
2019-02-20T03:30:31.939Z,3.70
2019-02-20T03:31:36.280Z,3.70
2019-02-20T03:32:40.526Z,3.80
2019-02-20T03:33:44.816Z,3.80
2019-02-20T03:34:49.013Z,3.90
2019-02-20T03:35:53.269Z,3.90
2019-02-20T03:36:57.880Z,3.80
2019-02-20T03:38:02.131Z,3.70
2019-02-20T03:39:07.412Z,3.80
2019-02-20T03:40:11.818Z,3.70
2019-02-20T03:41:16.101Z,3.60
2019-02-20T03:42:20.367Z,3.50
2019-02-20T03:43:24.598Z,3.40
2019-02-20T03:44:29.155Z,3.40
2019-02-20T03:45:33.435Z,3.40
2019-02-20T03:46:37.658Z,3.40
2019-02-20T03:47:41.950Z,3.50
2019-02-20T03:48:46.279Z,3.50
2019-02-20T03:49:50.612Z,3.50
2019-02-20T03:50:54.749Z,3.50
2019-02-20T03:51:59.097Z,3.50
2019-02-20T03:53:03.388Z,3.50
2019-02-20T03:54:07.603Z,3.40
2019-02-20T03:55:11.888Z,3.40
2019-02-20T03:56:16.396Z,3.40
2019-02-20T03:57:20.537Z,3.40
2019-02-20T03:58:24.785Z,3.40
2019-02-20T03:59:29.053Z,3.40
2019-02-20T04:00:33.322Z,3.40
2019-02-20T04:01:37.534Z,3.30
2019-02-20T04:02:41.839Z,3.40
2019-02-20T04:03:46.165Z,3.30
2019-02-20T04:04:50.421Z,3.30
2019-02-20T04:05:54.600Z,3.30
2019-02-20T04:06:58.819Z,3.30
2019-02-20T04:08:03.016Z,3.30
2019-02-20T04:09:07.675Z,3.30
2019-02-20T04:10:11.974Z,3.40
2019-02-20T04:11:16.155Z,3.50
2019-02-20T04:12:20.400Z,3.50
2019-02-20T04:13:24.580Z,3.50
2019-02-20T04:14:28.996Z,3.60
2019-02-20T04:15:33.311Z,3.50
2019-02-20T04:16:37.936Z,3.50
2019-02-20T04:17:42.131Z,3.50
2019-02-20T04:18:46.698Z,3.50
2019-02-20T04:19:50.866Z,3.50
2019-02-20T04:20:55.015Z,3.50
2019-02-20T04:21:59.217Z,3.60
2019-02-20T04:23:03.572Z,3.60
2019-02-20T04:24:07.868Z,3.60
2019-02-20T04:25:12.144Z,3.60
2019-02-20T04:26:16.425Z,3.60
2019-02-20T04:27:20.934Z,3.60
2019-02-20T04:28:25.126Z,3.70
2019-02-20T04:29:29.424Z,3.70
2019-02-20T04:30:33.759Z,3.70
2019-02-20T04:31:38.102Z,3.70
2019-02-20T04:32:42.407Z,3.70
2019-02-20T04:33:46.814Z,3.50
2019-02-20T04:34:51.132Z,3.50
2019-02-20T04:35:55.331Z,3.50
2019-02-20T04:36:59.715Z,3.40
2019-02-20T04:38:03.929Z,3.50
2019-02-20T04:39:08.244Z,3.40
2019-02-20T04:40:12.477Z,3.50
2019-02-20T04:41:16.656Z,3.40
2019-02-20T04:42:21.062Z,3.40
2019-02-20T04:43:25.253Z,3.50
2019-02-20T04:44:29.642Z,3.50
2019-02-20T04:45:33.818Z,3.50
2019-02-20T04:46:38.002Z,3.50
2019-02-20T04:47:42.188Z,3.50
2019-02-20T04:48:46.466Z,3.40
2019-02-20T04:49:50.695Z,3.40
2019-02-20T04:50:54.922Z,3.20
2019-02-20T04:51:59.471Z,3.20
2019-02-20T04:53:03.735Z,3.20
2019-02-20T04:54:13.280Z,3.30
2019-02-20T04:55:13.859Z,3.20
2019-02-20T04:56:18.021Z,3.20
2019-02-20T04:57:22.516Z,3.20
2019-02-20T04:58:26.748Z,3.20
2019-02-20T04:59:31.027Z,3.20
2019-02-20T05:00:35.257Z,3.20
2019-02-20T05:01:39.639Z,3.20
2019-02-20T05:02:43.935Z,3.20
2019-02-20T05:03:48.237Z,3.20
2019-02-20T05:04:52.606Z,3.10
2019-02-20T05:05:56.951Z,3.10
2019-02-20T05:07:01.286Z,3.00
2019-02-20T05:08:05.459Z,3.00
2019-02-20T05:09:09.629Z,3.10
2019-02-20T05:10:13.891Z,3.10
2019-02-20T05:11:18.200Z,3.10
2019-02-20T05:12:22.562Z,3.10
2019-02-20T05:13:26.823Z,3.10
2019-02-20T05:14:31.364Z,3.10
2019-02-20T05:15:35.937Z,3.30
2019-02-20T05:16:40.224Z,3.30
2019-02-20T05:17:44.511Z,3.40
2019-02-20T05:18:48.685Z,3.40
2019-02-20T05:19:52.892Z,3.50
2019-02-20T05:20:57.161Z,3.50
2019-02-20T05:22:01.490Z,3.50
2019-02-20T05:23:05.692Z,3.50
2019-02-20T05:24:09.979Z,3.40
2019-02-20T05:25:14.211Z,3.30
2019-02-20T05:26:18.541Z,3.20
2019-02-20T05:27:22.764Z,3.00
2019-02-20T05:28:26.928Z,3.00
2019-02-20T05:29:31.268Z,3.00
2019-02-20T05:30:35.567Z,3.00
2019-02-20T05:31:39.744Z,3.00
2019-02-20T05:32:43.936Z,3.10
2019-02-20T05:33:48.096Z,3.10
2019-02-20T05:34:52.318Z,3.10
2019-02-20T05:35:56.496Z,3.20
2019-02-20T05:37:00.783Z,3.20
2019-02-20T05:38:05.075Z,3.20
2019-02-20T05:39:09.259Z,3.20
2019-02-20T05:40:13.763Z,3.20
2019-02-20T05:41:17.970Z,3.20
2019-02-20T05:42:22.309Z,3.20
2019-02-20T05:43:26.639Z,3.10
2019-02-20T05:44:30.824Z,3.10
2019-02-20T05:45:35.356Z,3.10
2019-02-20T05:46:39.619Z,3.00
2019-02-20T05:47:43.907Z,3.00
2019-02-20T05:48:48.222Z,3.00
2019-02-20T05:49:52.535Z,3.10
2019-02-20T05:50:56.864Z,3.00
2019-02-20T05:52:01.083Z,3.10
2019-02-20T05:53:05.357Z,3.10
2019-02-20T05:54:09.552Z,3.20
2019-02-20T05:55:13.731Z,3.20
2019-02-20T05:56:17.894Z,3.20
2019-02-20T05:57:22.067Z,3.20
2019-02-20T05:58:26.221Z,3.30
2019-02-20T05:59:30.467Z,3.30
2019-02-20T06:00:34.758Z,3.30
2019-02-20T06:01:38.923Z,3.30
2019-02-20T06:02:43.190Z,3.20
2019-02-20T06:03:47.444Z,3.10
2019-02-20T06:04:51.683Z,3.00
2019-02-20T06:05:56.004Z,3.00
2019-02-20T06:07:00.343Z,3.00
2019-02-20T06:08:04.541Z,3.10
2019-02-20T06:09:08.711Z,3.10
2019-02-20T06:10:13.470Z,3.00
2019-02-20T06:11:18.107Z,3.10
2019-02-20T06:12:22.501Z,3.20
2019-02-20T06:13:26.642Z,3.30
2019-02-20T06:14:30.979Z,3.30
2019-02-20T06:15:35.221Z,3.20
2019-02-20T06:16:39.503Z,3.20
2019-02-20T06:17:43.786Z,3.10
2019-02-20T06:18:48.073Z,3.10
2019-02-20T06:19:52.217Z,3.10
2019-02-20T06:20:56.451Z,3.20
2019-02-20T06:22:00.827Z,3.20
2019-02-20T06:23:04.947Z,3.20
2019-02-20T06:24:09.153Z,3.20
2019-02-20T06:25:13.468Z,3.30
2019-02-20T06:26:17.798Z,3.40
2019-02-20T06:27:22.014Z,3.60
2019-02-20T06:28:26.197Z,3.50
2019-02-20T06:29:30.425Z,3.50
2019-02-20T06:30:34.659Z,3.40
2019-02-20T06:31:38.970Z,3.40
2019-02-20T06:32:43.247Z,3.30
2019-02-20T06:33:47.553Z,3.30
2019-02-20T06:34:51.856Z,3.20
2019-02-20T06:35:56.013Z,3.20
2019-02-20T06:37:00.181Z,3.10
2019-02-20T06:38:04.338Z,3.10
2019-02-20T06:39:08.598Z,3.20
2019-02-20T06:40:12.774Z,3.10
2019-02-20T06:41:17.056Z,3.10
2019-02-20T06:42:21.372Z,3.10
2019-02-20T06:43:25.642Z,3.20
2019-02-20T06:44:29.961Z,3.20
2019-02-20T06:45:34.214Z,3.20
2019-02-20T06:46:38.501Z,3.30
2019-02-20T06:47:42.787Z,3.30
2019-02-20T06:48:47.039Z,3.30
2019-02-20T06:49:51.307Z,3.30
2019-02-20T06:50:55.541Z,3.30
2019-02-20T06:51:59.797Z,3.30
2019-02-20T06:53:04.057Z,3.30
2019-02-20T06:54:08.295Z,3.40
2019-02-20T06:55:12.552Z,3.40
2019-02-20T06:56:16.760Z,3.40
2019-02-20T06:57:20.921Z,3.40
2019-02-20T06:58:25.190Z,3.50
2019-02-20T06:59:29.556Z,3.50
2019-02-20T07:00:33.729Z,3.50
2019-02-20T07:01:37.901Z,3.40
2019-02-20T07:02:42.093Z,3.40
2019-02-20T07:03:46.398Z,3.50
2019-02-20T07:05:31.919Z,3.40
2019-02-20T07:06:40.481Z,3.50
2019-02-20T07:08:20.914Z,3.40
2019-02-20T07:10:05.245Z,3.40
2019-02-20T07:11:35.042Z,3.40
2019-02-20T07:13:15.325Z,3.50
2019-02-20T07:15:01.933Z,3.50
2019-02-20T07:16:45.803Z,3.50
2019-02-20T07:18:21.617Z,3.50
2019-02-20T07:19:50.734Z,3.50
2019-02-20T07:21:35.733Z,3.50
2019-02-20T07:23:01.821Z,3.50
2019-02-20T07:24:12.935Z,3.50
2019-02-20T07:25:44.713Z,3.50
2019-02-20T07:27:45.335Z,3.50
2019-02-20T07:29:15.823Z,3.40
2019-02-20T07:30:20.108Z,3.60
2019-02-20T07:31:24.307Z,3.60
2019-02-20T07:32:28.932Z,3.50
2019-02-20T07:33:33.186Z,3.50
2019-02-20T07:34:37.441Z,3.40
2019-02-20T07:35:41.690Z,3.30
2019-02-20T07:36:46.173Z,3.20
2019-02-20T07:37:50.448Z,3.30
2019-02-20T07:38:54.615Z,3.40
2019-02-20T07:39:58.903Z,3.50
2019-02-20T07:41:03.139Z,3.50
2019-02-20T07:42:07.493Z,3.40
2019-02-20T07:43:11.731Z,3.30
2019-02-20T07:44:16.061Z,3.40
2019-02-20T07:45:20.221Z,3.30
2019-02-20T07:46:24.436Z,3.20
2019-02-20T07:47:28.791Z,3.20
2019-02-20T07:48:32.934Z,3.20
2019-02-20T07:49:37.137Z,3.20
2019-02-20T07:50:41.423Z,3.20
2019-02-20T07:51:45.819Z,3.20
2019-02-20T07:52:52.488Z,3.20
2019-02-20T07:53:56.840Z,3.20
2019-02-20T07:55:01.011Z,3.20
2019-02-20T07:56:05.641Z,3.20
2019-02-20T07:57:09.793Z,3.20
2019-02-20T07:58:14.082Z,3.30
2019-02-20T07:59:18.364Z,3.30
2019-02-20T08:00:22.615Z,3.40
2019-02-20T08:01:26.820Z,3.40
2019-02-20T08:02:31.041Z,3.50
2019-02-20T08:03:35.262Z,3.50
2019-02-20T08:04:39.504Z,3.50
2019-02-20T08:05:43.717Z,3.60
2019-02-20T08:06:48.025Z,3.60
2019-02-20T08:07:52.207Z,3.50
2019-02-20T08:08:56.529Z,3.60
2019-02-20T08:10:00.831Z,3.70
2019-02-20T08:11:05.208Z,3.70
2019-02-20T08:12:09.506Z,3.80
2019-02-20T08:13:13.696Z,3.80
2019-02-20T08:14:17.886Z,3.80
2019-02-20T08:15:22.167Z,3.90
2019-02-20T08:16:26.466Z,3.90
2019-02-20T08:17:30.747Z,3.80
2019-02-20T08:18:35.002Z,3.90
2019-02-20T08:19:39.289Z,3.80
2019-02-20T08:20:43.503Z,3.80
2019-02-20T08:21:47.959Z,3.70
2019-02-20T08:22:52.122Z,3.80
2019-02-20T08:23:56.313Z,3.80
2019-02-20T08:25:00.479Z,3.80
2019-02-20T08:26:04.789Z,3.80
2019-02-20T08:27:09.155Z,3.90
2019-02-20T08:28:13.458Z,3.90
2019-02-20T08:29:17.741Z,4.00
2019-02-20T08:30:22.057Z,4.00
2019-02-20T08:31:26.664Z,4.10
2019-02-20T08:32:30.954Z,4.10
2019-02-20T08:33:35.232Z,4.10
2019-02-20T08:34:39.567Z,4.00
2019-02-20T08:35:43.851Z,4.10
2019-02-20T08:36:48.107Z,4.00
2019-02-20T08:37:52.341Z,4.10
2019-02-20T08:38:56.640Z,4.20
2019-02-20T08:40:00.941Z,4.30
2019-02-20T08:41:05.071Z,4.40
2019-02-20T08:42:09.371Z,4.40
2019-02-20T08:43:13.730Z,4.50
2019-02-20T08:44:17.913Z,4.40
2019-02-20T08:45:22.288Z,4.50
2019-02-20T08:46:26.581Z,4.50
2019-02-20T08:47:30.875Z,4.50
2019-02-20T08:48:35.121Z,4.50
2019-02-20T08:49:39.400Z,4.50
2019-02-20T08:50:43.731Z,4.50
2019-02-20T08:51:47.981Z,4.60
2019-02-20T08:52:52.231Z,4.60
2019-02-20T08:53:56.391Z,4.60
2019-02-20T08:55:00.609Z,4.60
2019-02-20T08:56:05.111Z,4.60
2019-02-20T08:57:09.281Z,4.60
2019-02-20T08:58:13.833Z,4.60
2019-02-20T08:59:18.047Z,4.70
2019-02-20T09:00:22.686Z,4.60
2019-02-20T09:01:27.243Z,4.60
2019-02-20T09:02:31.510Z,4.60
2019-02-20T09:03:35.825Z,4.50
2019-02-20T09:04:40.161Z,4.50
2019-02-20T09:05:44.453Z,4.50
2019-02-20T09:06:48.654Z,4.60
2019-02-20T09:07:52.817Z,4.60
2019-02-20T09:08:57.253Z,4.60
2019-02-20T09:10:01.481Z,4.60
2019-02-20T09:11:05.780Z,4.70
2019-02-20T09:12:09.923Z,4.70
2019-02-20T09:13:14.115Z,4.70
2019-02-20T09:14:18.255Z,4.80
2019-02-20T09:15:22.549Z,4.70
2019-02-20T09:16:26.777Z,4.70
2019-02-20T09:17:31.009Z,4.70
2019-02-20T09:18:35.343Z,4.70
2019-02-20T09:19:39.537Z,4.80
2019-02-20T09:20:43.811Z,4.80
2019-02-20T09:21:48.093Z,4.90
2019-02-20T09:22:52.392Z,4.80
2019-02-20T09:23:56.538Z,4.80
2019-02-20T09:25:00.818Z,4.70
2019-02-20T09:26:05.043Z,4.60
2019-02-20T09:27:09.376Z,4.70
2019-02-20T09:28:13.556Z,4.70
2019-02-20T09:29:17.903Z,4.80
2019-02-20T09:30:28.227Z,4.80
2019-02-20T09:31:28.045Z,4.90
2019-02-20T09:32:32.272Z,4.90
2019-02-20T09:33:36.519Z,5.00
2019-02-20T09:34:40.705Z,5.00
2019-02-20T09:35:44.867Z,5.00
2019-02-20T09:36:49.021Z,5.10
2019-02-20T09:37:53.349Z,5.10
2019-02-20T09:38:57.626Z,5.20
2019-02-20T09:40:01.761Z,5.20
2019-02-20T09:41:05.999Z,5.30
2019-02-20T09:42:15.432Z,5.30
2019-02-20T09:43:19.667Z,5.30
2019-02-20T09:44:23.938Z,5.30
2019-02-20T09:45:28.111Z,5.30
2019-02-20T09:46:32.403Z,5.40
2019-02-20T09:47:36.575Z,5.30
2019-02-20T09:48:40.846Z,5.20
2019-02-20T09:49:45.032Z,5.20
2019-02-20T09:50:49.167Z,5.20
2019-02-20T09:51:53.473Z,5.10
2019-02-20T09:52:57.748Z,5.00
2019-02-20T09:54:02.018Z,5.10
2019-02-20T09:55:06.691Z,5.10
2019-02-20T09:56:11.023Z,5.00
2019-02-20T09:57:15.191Z,5.00
2019-02-20T09:58:19.384Z,5.10
2019-02-20T09:59:23.616Z,5.20
2019-02-20T10:00:27.880Z,5.30
2019-02-20T10:01:32.259Z,5.30
2019-02-20T10:02:36.582Z,5.30
2019-02-20T10:03:40.807Z,5.30
2019-02-20T10:04:45.098Z,5.20
2019-02-20T10:05:49.395Z,5.20
2019-02-20T10:06:53.560Z,5.20
2019-02-20T10:07:57.697Z,5.20
2019-02-20T10:09:01.915Z,5.30
2019-02-20T10:10:06.290Z,5.30
2019-02-20T10:11:10.593Z,5.20
2019-02-20T10:12:14.795Z,5.20
2019-02-20T10:13:18.949Z,5.30
2019-02-20T10:14:23.578Z,5.30
2019-02-20T10:15:27.799Z,5.30
2019-02-20T10:16:32.099Z,5.40
2019-02-20T10:17:36.249Z,5.50
2019-02-20T10:18:40.526Z,5.50
2019-02-20T10:19:44.819Z,5.50
2019-02-20T10:20:48.997Z,5.60
2019-02-20T10:21:53.251Z,5.60
2019-02-20T10:22:57.439Z,5.50
2019-02-20T10:24:01.617Z,5.40
2019-02-20T10:25:06.125Z,5.40
2019-02-20T10:26:10.337Z,5.50
2019-02-20T10:27:14.548Z,5.60
2019-02-20T10:28:18.819Z,5.60
2019-02-20T10:29:22.947Z,5.70
2019-02-20T10:30:27.157Z,5.80
2019-02-20T10:31:31.312Z,5.80
2019-02-20T10:32:35.521Z,5.90
2019-02-20T10:33:39.792Z,5.90
2019-02-20T10:34:44.001Z,6.10
2019-02-20T10:35:48.310Z,6.20
2019-02-20T10:36:52.530Z,6.30
2019-02-20T10:37:56.864Z,6.40
2019-02-20T10:39:01.109Z,6.40
2019-02-20T10:40:05.642Z,6.30
2019-02-20T10:41:09.923Z,6.30
2019-02-20T10:42:14.143Z,6.30
2019-02-20T10:43:18.463Z,6.30
2019-02-20T10:44:22.663Z,6.30
2019-02-20T10:45:26.875Z,6.40
2019-02-20T10:46:31.061Z,6.40
2019-02-20T10:47:35.361Z,6.50
2019-02-20T10:48:39.589Z,6.50
2019-02-20T10:49:43.830Z,6.50
2019-02-20T10:50:48.034Z,6.60
2019-02-20T10:51:52.239Z,6.80
2019-02-20T10:52:56.396Z,6.80
2019-02-20T10:54:00.699Z,6.90
2019-02-20T10:55:05.339Z,7.00
2019-02-20T10:56:09.851Z,7.00
2019-02-20T10:57:14.150Z,7.00
2019-02-20T10:58:18.518Z,7.00
2019-02-20T10:59:22.671Z,7.00
2019-02-20T11:00:28.829Z,7.00
2019-02-20T11:01:32.973Z,7.00
2019-02-20T11:02:37.179Z,7.00
2019-02-20T11:03:41.427Z,7.00
2019-02-20T11:04:45.617Z,6.90
2019-02-20T11:05:49.749Z,7.00
2019-02-20T11:06:54.071Z,6.90
2019-02-20T11:07:58.257Z,7.00
2019-02-20T11:09:02.561Z,7.00
2019-02-20T11:10:06.985Z,7.00
2019-02-20T11:11:11.260Z,6.90
2019-02-20T11:12:15.542Z,6.90
2019-02-20T11:13:19.835Z,7.00
2019-02-20T11:14:24.105Z,7.00
2019-02-20T11:15:28.448Z,7.00
2019-02-20T11:16:33.099Z,7.00
2019-02-20T11:17:37.630Z,7.10
2019-02-20T11:18:41.933Z,7.20
2019-02-20T11:19:46.229Z,7.20
2019-02-20T11:20:50.500Z,7.20
2019-02-20T11:21:54.663Z,7.30
2019-02-20T11:22:58.924Z,7.30
2019-02-20T11:24:03.151Z,7.30
2019-02-20T11:25:08.526Z,7.20
2019-02-20T11:26:18.295Z,7.20
2019-02-20T11:27:19.503Z,7.30
2019-02-20T11:28:26.931Z,7.30
2019-02-20T11:29:29.841Z,7.30
2019-02-20T11:30:33.994Z,7.30
2019-02-20T11:31:38.175Z,7.30
2019-02-20T11:32:42.462Z,7.30
2019-02-20T11:33:46.749Z,7.40
2019-02-20T11:34:50.961Z,7.40
2019-02-20T11:35:55.123Z,7.50
2019-02-20T11:36:59.449Z,7.40
2019-02-20T11:38:03.685Z,7.40
2019-02-20T11:39:07.937Z,7.50
2019-02-20T11:40:12.202Z,7.50
2019-02-20T11:41:16.413Z,7.60
2019-02-20T11:42:20.664Z,7.60
2019-02-20T11:43:24.869Z,7.60
2019-02-20T11:44:29.058Z,7.60
2019-02-20T11:45:33.218Z,7.60
2019-02-20T11:46:37.374Z,7.70
2019-02-20T11:47:41.615Z,7.70
2019-02-20T11:48:45.774Z,7.80
2019-02-20T11:49:50.057Z,7.80
2019-02-20T11:50:54.257Z,7.80
2019-02-20T11:51:58.517Z,7.80
2019-02-20T11:53:02.717Z,7.80
2019-02-20T11:54:06.934Z,7.80
2019-02-20T11:55:11.411Z,7.90
2019-02-20T11:56:15.662Z,7.90
2019-02-20T11:57:20.933Z,7.90
2019-02-20T11:58:25.119Z,7.90
2019-02-20T11:59:29.292Z,8.00
2019-02-20T12:00:33.564Z,8.00
2019-02-20T12:01:37.873Z,8.00
2019-02-20T12:02:42.300Z,8.00
2019-02-20T12:03:46.795Z,8.10
2019-02-20T12:04:51.104Z,8.10
2019-02-20T12:05:55.371Z,8.00
2019-02-20T12:06:59.662Z,8.10
2019-02-20T12:08:03.823Z,8.10
2019-02-20T12:09:09.309Z,8.00
2019-02-20T12:10:14.474Z,8.10
2019-02-20T12:11:19.646Z,8.10
2019-02-20T12:12:23.803Z,8.10
2019-02-20T12:13:27.977Z,8.10
2019-02-20T12:14:32.109Z,8.10
2019-02-20T12:15:36.415Z,8.10
2019-02-20T12:16:40.600Z,8.20
2019-02-20T12:17:44.859Z,8.10
2019-02-20T12:18:49.143Z,8.10
2019-02-20T12:19:53.341Z,8.10
2019-02-20T12:20:57.514Z,8.10
2019-02-20T12:22:01.844Z,8.00
2019-02-20T12:23:05.988Z,8.00
2019-02-20T12:24:11.832Z,8.00
2019-02-20T12:25:16.317Z,8.00
2019-02-20T12:26:20.657Z,8.00
2019-02-20T12:27:24.896Z,8.00
2019-02-20T12:28:29.061Z,8.10
2019-02-20T12:29:33.338Z,8.00
2019-02-20T12:30:38.087Z,8.00
2019-02-20T12:31:42.439Z,8.00
2019-02-20T12:32:46.562Z,8.00
2019-02-20T12:33:52.228Z,8.10
2019-02-20T12:34:56.547Z,8.10
2019-02-20T12:36:00.843Z,8.10
2019-02-20T12:37:05.145Z,8.10
2019-02-20T12:38:09.417Z,8.20
2019-02-20T12:39:13.703Z,8.20
2019-02-20T12:40:17.896Z,8.20
2019-02-20T12:41:22.034Z,8.20
2019-02-20T12:42:26.289Z,8.20
2019-02-20T12:43:30.609Z,8.20
2019-02-20T12:44:34.794Z,8.20
2019-02-20T12:45:39.056Z,8.20
2019-02-20T12:46:43.238Z,8.20
2019-02-20T12:47:47.535Z,8.20
2019-02-20T12:48:51.754Z,8.20
2019-02-20T12:49:55.915Z,8.20
2019-02-20T12:51:00.105Z,8.20
2019-02-20T12:52:04.271Z,8.20
2019-02-20T12:53:08.497Z,8.20
2019-02-20T12:54:12.775Z,8.20
2019-02-20T12:55:17.009Z,8.20
2019-02-20T12:56:21.205Z,8.20
2019-02-20T12:57:27.106Z,8.20
2019-02-20T12:58:31.275Z,8.20
2019-02-20T12:59:36.758Z,8.20
2019-02-20T13:00:41.083Z,8.20
2019-02-20T13:01:45.238Z,8.20
2019-02-20T13:02:49.579Z,8.30
2019-02-20T13:03:54.087Z,8.30
2019-02-20T13:04:58.685Z,8.20
2019-02-20T13:06:02.913Z,8.20
2019-02-20T13:07:07.153Z,8.30
2019-02-20T13:08:11.421Z,8.30
2019-02-20T13:09:17.053Z,8.30
2019-02-20T13:10:21.248Z,8.30
2019-02-20T13:11:25.595Z,8.20
2019-02-20T13:12:30.507Z,8.30
2019-02-20T13:13:34.844Z,8.30
2019-02-20T13:14:39.105Z,8.30
2019-02-20T13:15:43.330Z,8.30
2019-02-20T13:16:47.463Z,8.30
2019-02-20T13:17:51.997Z,8.30
2019-02-20T13:18:56.290Z,8.30
2019-02-20T13:20:00.561Z,8.30
2019-02-20T13:21:04.815Z,8.40
2019-02-20T13:22:09.103Z,8.40
2019-02-20T13:23:13.675Z,8.40
2019-02-20T13:24:18.009Z,8.40
2019-02-20T13:25:22.219Z,8.40
2019-02-20T13:26:26.437Z,8.40
2019-02-20T13:27:30.605Z,8.40
2019-02-20T13:28:34.784Z,8.40
2019-02-20T13:29:39.041Z,8.40
2019-02-20T13:30:43.361Z,8.40
2019-02-20T13:31:47.613Z,8.40
2019-02-20T13:32:51.864Z,8.40
2019-02-20T13:33:56.144Z,8.40
2019-02-20T13:35:00.508Z,8.40
2019-02-20T13:36:05.789Z,8.40
2019-02-20T13:37:10.113Z,8.40
2019-02-20T13:38:16.299Z,8.50
2019-02-20T13:39:20.463Z,8.40
2019-02-20T13:40:24.791Z,8.40
2019-02-20T13:41:28.931Z,8.40
2019-02-20T13:42:34.867Z,8.40
2019-02-20T13:43:39.199Z,8.50
2019-02-20T13:44:43.435Z,8.40
2019-02-20T13:45:47.780Z,8.40
2019-02-20T13:46:52.013Z,8.40
2019-02-20T13:47:56.449Z,8.40
2019-02-20T13:49:01.020Z,8.40
2019-02-20T13:50:06.545Z,8.50
2019-02-20T13:51:10.779Z,8.50
2019-02-20T13:52:15.005Z,8.50
2019-02-20T13:53:19.346Z,8.50
2019-02-20T13:54:23.698Z,8.50
2019-02-20T13:55:34.243Z,8.50
2019-02-20T13:56:34.251Z,8.50
2019-02-20T13:57:38.569Z,8.50
2019-02-20T13:58:43.063Z,8.50
2019-02-20T13:59:47.207Z,8.50
2019-02-20T14:00:51.557Z,8.50
2019-02-20T14:01:55.892Z,8.50
2019-02-20T14:03:00.177Z,8.50
2019-02-20T14:04:04.519Z,8.50
2019-02-20T14:05:09.410Z,8.50
2019-02-20T14:06:15.103Z,8.50
2019-02-20T14:07:19.922Z,8.50
2019-02-20T14:08:24.230Z,8.50
2019-02-20T14:09:28.639Z,8.50
2019-02-20T14:10:32.777Z,8.50
2019-02-20T14:11:37.445Z,8.50
2019-02-20T14:12:41.685Z,8.50
2019-02-20T14:13:45.947Z,8.50
2019-02-20T14:14:50.241Z,8.40
2019-02-20T14:15:54.599Z,8.50
2019-02-20T14:16:58.926Z,8.40
2019-02-20T14:18:03.289Z,8.50
2019-02-20T14:19:07.550Z,8.50
2019-02-20T14:20:12.000Z,8.50
2019-02-20T14:21:16.574Z,8.50
2019-02-20T14:22:20.856Z,8.50
2019-02-20T14:23:25.171Z,8.50
2019-02-20T14:24:29.343Z,8.50
2019-02-20T14:25:33.611Z,8.50
2019-02-20T14:26:37.822Z,8.50